createdAt,value
2019-06-10T00:00:37.215Z,992.69
2019-06-10T00:01:37.265Z,992.68
2019-06-10T00:02:37.226Z,992.67
2019-06-10T00:03:37.201Z,992.64
2019-06-10T00:04:37.204Z,992.58
2019-06-10T00:05:37.169Z,992.58
2019-06-10T00:06:37.156Z,992.64
2019-06-10T00:07:37.155Z,992.61
2019-06-10T00:08:37.131Z,992.62
2019-06-10T00:09:37.110Z,992.64
2019-06-10T00:10:37.089Z,992.62
2019-06-10T00:11:37.109Z,992.62
2019-06-10T00:12:37.117Z,992.59
2019-06-10T00:13:37.090Z,992.52
2019-06-10T00:14:37.063Z,992.56
2019-06-10T00:15:37.064Z,992.56
2019-06-10T00:16:37.048Z,992.53
2019-06-10T00:17:50.678Z,992.56
2019-06-10T00:18:42.039Z,992.58
2019-06-10T00:19:38.010Z,992.56
2019-06-10T00:20:37.005Z,992.60
2019-06-10T00:21:36.968Z,992.58
2019-06-10T00:22:36.994Z,992.63
2019-06-10T00:23:36.958Z,992.64
2019-06-10T00:24:36.960Z,992.60
2019-06-10T00:25:36.956Z,992.56
2019-06-10T00:26:36.923Z,992.57
2019-06-10T00:27:36.938Z,992.48
2019-06-10T00:28:36.910Z,992.50
2019-06-10T00:29:36.895Z,992.45
2019-06-10T00:30:36.893Z,992.44
2019-06-10T00:31:36.872Z,992.40
2019-06-10T00:32:36.888Z,992.40
2019-06-10T00:33:36.853Z,992.42
2019-06-10T00:34:36.834Z,992.38
2019-06-10T00:35:36.850Z,992.41
2019-06-10T00:36:36.823Z,992.39
2019-06-10T00:37:36.822Z,992.35
2019-06-10T00:38:36.788Z,992.34
2019-06-10T00:39:36.784Z,992.30
2019-06-10T00:40:36.789Z,992.33
2019-06-10T00:41:36.779Z,992.27
2019-06-10T00:42:36.783Z,992.26
2019-06-10T00:43:36.762Z,992.22
2019-06-10T00:44:36.737Z,992.23
2019-06-10T00:45:36.734Z,992.22
2019-06-10T00:46:36.706Z,992.16
2019-06-10T00:47:36.724Z,992.15
2019-06-10T00:48:36.702Z,992.17
2019-06-10T00:49:36.684Z,992.15
2019-06-10T00:50:36.661Z,992.14
2019-06-10T00:51:36.655Z,992.11
2019-06-10T00:52:36.675Z,992.13
2019-06-10T00:53:36.625Z,992.10
2019-06-10T00:54:36.627Z,992.10
2019-06-10T00:55:36.652Z,992.14
2019-06-10T00:56:36.602Z,992.13
2019-06-10T00:57:36.595Z,992.14
2019-06-10T00:58:36.564Z,992.17
2019-06-10T00:59:36.573Z,992.10
2019-06-10T01:00:36.555Z,992.10
2019-06-10T01:01:36.581Z,992.12
2019-06-10T01:02:36.547Z,992.14
2019-06-10T01:03:36.528Z,992.12
2019-06-10T01:04:36.507Z,992.07
2019-06-10T01:05:36.514Z,992.13
2019-06-10T01:06:36.512Z,992.10
2019-06-10T01:07:36.494Z,992.05
2019-06-10T01:08:36.470Z,992.03
2019-06-10T01:09:36.468Z,991.98
2019-06-10T01:10:36.441Z,992.01
2019-06-10T01:11:36.432Z,991.99
2019-06-10T01:12:36.437Z,992.03
2019-06-10T01:13:36.403Z,991.99
2019-06-10T01:14:36.402Z,991.99
2019-06-10T01:15:36.386Z,992.02
2019-06-10T01:16:36.371Z,992.00
2019-06-10T01:17:36.402Z,992.04
2019-06-10T01:18:38.555Z,992.02
2019-06-10T01:19:36.346Z,992.02
2019-06-10T01:20:36.334Z,992.02
2019-06-10T01:21:36.341Z,992.04
2019-06-10T01:22:36.361Z,992.03
2019-06-10T01:23:36.309Z,992.01
2019-06-10T01:24:36.301Z,992.02
2019-06-10T01:25:36.290Z,992.07
2019-06-10T01:26:36.281Z,992.00
2019-06-10T01:27:36.300Z,991.96
2019-06-10T01:28:36.259Z,992.01
2019-06-10T01:29:36.251Z,991.96
2019-06-10T01:30:36.230Z,991.92
2019-06-10T01:31:36.235Z,991.95
2019-06-10T01:32:36.228Z,991.94
2019-06-10T01:33:36.183Z,991.89
2019-06-10T01:34:36.179Z,991.90
2019-06-10T01:35:36.160Z,991.83
2019-06-10T01:36:36.167Z,991.82
2019-06-10T01:37:36.169Z,991.79
2019-06-10T01:38:36.130Z,991.85
2019-06-10T01:39:36.119Z,991.75
2019-06-10T01:40:36.130Z,991.73
2019-06-10T01:41:36.100Z,991.72
2019-06-10T01:42:36.128Z,991.69
2019-06-10T01:43:36.088Z,991.56
2019-06-10T01:44:36.077Z,991.55
2019-06-10T01:45:36.068Z,991.53
2019-06-10T01:46:36.066Z,991.50
2019-06-10T01:47:36.076Z,991.49
2019-06-10T01:48:44.244Z,991.50
2019-06-10T01:49:37.025Z,991.46
2019-06-10T01:50:36.017Z,991.45
2019-06-10T01:51:36.009Z,991.40
2019-06-10T01:52:36.015Z,991.33
2019-06-10T01:53:35.955Z,991.42
2019-06-10T01:54:35.946Z,991.34
2019-06-10T01:55:35.944Z,991.41
2019-06-10T01:56:35.945Z,991.38
2019-06-10T01:57:35.916Z,991.45
2019-06-10T01:58:35.956Z,991.44
2019-06-10T01:59:35.900Z,991.48
2019-06-10T02:00:35.888Z,991.50
2019-06-10T02:01:35.890Z,991.48
2019-06-10T02:02:35.859Z,991.51
2019-06-10T02:03:35.875Z,991.55
2019-06-10T02:04:35.835Z,991.56
2019-06-10T02:05:35.845Z,991.59
2019-06-10T02:06:35.822Z,991.57
2019-06-10T02:07:35.815Z,991.58
2019-06-10T02:08:35.823Z,991.58
2019-06-10T02:09:35.792Z,991.54
2019-06-10T02:10:35.785Z,991.52
2019-06-10T02:11:35.762Z,991.50
2019-06-10T02:12:35.755Z,991.49
2019-06-10T02:13:35.776Z,991.56
2019-06-10T02:14:35.738Z,991.54
2019-06-10T02:15:35.732Z,991.56
2019-06-10T02:16:35.716Z,991.51
2019-06-10T02:17:35.689Z,991.50
2019-06-10T02:18:35.715Z,991.52
2019-06-10T02:19:35.673Z,991.50
2019-06-10T02:20:35.665Z,991.46
2019-06-10T02:21:35.635Z,991.46
2019-06-10T02:22:35.650Z,991.41
2019-06-10T02:23:35.656Z,991.46
2019-06-10T02:24:35.620Z,991.45
2019-06-10T02:25:35.607Z,991.44
2019-06-10T02:26:35.600Z,991.48
2019-06-10T02:27:35.605Z,991.47
2019-06-10T02:28:35.592Z,991.49
2019-06-10T02:29:35.567Z,991.46
2019-06-10T02:30:44.222Z,991.49
2019-06-10T02:31:37.757Z,991.46
2019-06-10T02:32:37.613Z,991.48
2019-06-10T02:33:36.676Z,991.49
2019-06-10T02:34:42.865Z,991.46
2019-06-10T02:35:44.208Z,991.49
2019-06-10T02:36:37.164Z,991.47
2019-06-10T02:37:38.263Z,991.44
2019-06-10T02:38:39.622Z,991.44
2019-06-10T02:39:39.013Z,991.46
2019-06-10T02:40:36.516Z,991.44
2019-06-10T02:41:36.398Z,991.43
2019-06-10T02:42:36.212Z,991.44
2019-06-10T02:43:37.574Z,991.39
2019-06-10T02:44:37.505Z,991.38
2019-06-10T02:45:37.650Z,991.41
2019-06-10T02:46:36.136Z,991.41
2019-06-10T02:47:37.955Z,991.46
2019-06-10T02:48:35.692Z,991.47
2019-06-10T02:49:52.627Z,991.45
2019-06-10T02:50:36.603Z,991.42
2019-06-10T02:51:35.953Z,991.39
2019-06-10T02:52:38.509Z,991.38
2019-06-10T02:53:36.653Z,991.32
2019-06-10T02:54:36.077Z,991.25
2019-06-10T02:55:35.366Z,991.24
2019-06-10T02:56:36.882Z,991.19
2019-06-10T02:57:40.139Z,991.18
2019-06-10T02:58:38.859Z,991.15
2019-06-10T02:59:36.246Z,991.20
2019-06-10T03:00:43.171Z,991.13
2019-06-10T03:01:38.056Z,991.20
2019-06-10T03:02:36.411Z,991.17
2019-06-10T03:03:42.893Z,991.11
2019-06-10T03:04:37.685Z,991.09
2019-06-10T03:05:41.075Z,991.10
2019-06-10T03:06:39.947Z,991.10
2019-06-10T03:07:35.799Z,991.06
2019-06-10T03:08:36.597Z,991.04
2019-06-10T03:09:35.872Z,991.00
2019-06-10T03:10:37.279Z,990.98
2019-06-10T03:11:37.355Z,990.97
2019-06-10T03:12:35.098Z,990.93
2019-06-10T03:13:35.119Z,990.96
2019-06-10T03:14:35.065Z,990.98
2019-06-10T03:15:35.067Z,991.06
2019-06-10T03:16:35.050Z,990.96
2019-06-10T03:17:35.039Z,991.00
2019-06-10T03:18:35.053Z,990.99
2019-06-10T03:19:46.971Z,991.01
2019-06-10T03:20:35.995Z,990.99
2019-06-10T03:21:34.991Z,990.94
2019-06-10T03:22:34.980Z,990.99
2019-06-10T03:23:34.999Z,990.97
2019-06-10T03:24:34.975Z,990.98
2019-06-10T03:25:34.956Z,991.00
2019-06-10T03:26:34.935Z,990.94
2019-06-10T03:27:34.942Z,990.97
2019-06-10T03:28:34.946Z,991.00
2019-06-10T03:29:34.910Z,990.99
2019-06-10T03:30:47.410Z,990.97
2019-06-10T03:31:42.028Z,990.99
2019-06-10T03:32:41.172Z,991.00
2019-06-10T03:33:41.400Z,990.96
2019-06-10T03:34:41.624Z,991.00
2019-06-10T03:35:35.830Z,991.02
2019-06-10T03:36:34.819Z,991.00
2019-06-10T03:37:34.819Z,990.95
2019-06-10T03:38:37.010Z,990.96
2019-06-10T03:39:34.812Z,991.00
2019-06-10T03:40:34.782Z,991.00
2019-06-10T03:41:34.776Z,990.99
2019-06-10T03:42:34.760Z,990.99
2019-06-10T03:43:34.780Z,991.00
2019-06-10T03:44:34.764Z,990.95
2019-06-10T03:45:34.731Z,991.00
2019-06-10T03:46:34.716Z,990.96
2019-06-10T03:47:34.702Z,991.01
2019-06-10T03:48:34.724Z,991.01
2019-06-10T03:49:49.143Z,990.93
2019-06-10T03:50:35.685Z,991.04
2019-06-10T03:51:34.679Z,990.93
2019-06-10T03:52:34.662Z,990.97
2019-06-10T03:53:34.661Z,990.96
2019-06-10T03:54:34.630Z,990.96
2019-06-10T03:55:34.632Z,990.93
2019-06-10T03:56:34.611Z,990.95
2019-06-10T03:57:34.602Z,990.94
2019-06-10T03:58:34.625Z,990.97
2019-06-10T03:59:34.582Z,991.01
2019-06-10T04:00:36.929Z,990.94
2019-06-10T04:01:34.584Z,990.91
2019-06-10T04:02:34.574Z,990.96
2019-06-10T04:03:34.581Z,990.99
2019-06-10T04:04:34.541Z,991.02
2019-06-10T04:05:34.540Z,991.06
2019-06-10T04:06:34.513Z,991.06
2019-06-10T04:07:34.512Z,991.08
2019-06-10T04:08:34.519Z,991.02
2019-06-10T04:09:34.480Z,991.04
2019-06-10T04:10:34.470Z,991.03
2019-06-10T04:11:35.540Z,991.04
2019-06-10T04:12:34.426Z,991.07
2019-06-10T04:13:34.459Z,991.00
2019-06-10T04:14:34.425Z,990.99
2019-06-10T04:15:34.393Z,990.93
2019-06-10T04:16:34.398Z,990.92
2019-06-10T04:17:34.378Z,990.95
2019-06-10T04:18:34.404Z,990.99
2019-06-10T04:19:34.372Z,990.97
2019-06-10T04:20:34.358Z,990.95
2019-06-10T04:21:34.340Z,990.98
2019-06-10T04:22:34.340Z,990.97
2019-06-10T04:23:34.333Z,990.99
2019-06-10T04:24:34.303Z,990.93
2019-06-10T04:25:34.312Z,990.93
2019-06-10T04:26:34.262Z,990.92
2019-06-10T04:27:34.293Z,990.92
2019-06-10T04:28:34.259Z,990.91
2019-06-10T04:29:34.278Z,990.95
2019-06-10T04:30:34.237Z,990.93
2019-06-10T04:31:34.215Z,990.91
2019-06-10T04:32:34.205Z,990.92
2019-06-10T04:33:34.219Z,990.84
2019-06-10T04:34:34.213Z,990.85
2019-06-10T04:35:34.193Z,990.86
2019-06-10T04:36:34.167Z,990.85
2019-06-10T04:37:34.161Z,990.84
2019-06-10T04:38:34.153Z,990.86
2019-06-10T04:39:34.165Z,990.85
2019-06-10T04:40:34.139Z,990.84
2019-06-10T04:41:34.103Z,990.85
2019-06-10T04:42:34.104Z,990.83
2019-06-10T04:43:34.105Z,990.77
2019-06-10T04:44:34.115Z,990.82
2019-06-10T04:45:34.083Z,990.85
2019-06-10T04:46:34.050Z,990.83
2019-06-10T04:47:34.055Z,990.79
2019-06-10T04:48:34.039Z,990.78
2019-06-10T04:49:34.044Z,990.76
2019-06-10T04:50:42.197Z,990.77
2019-06-10T04:51:35.005Z,990.71
2019-06-10T04:52:33.994Z,990.75
2019-06-10T04:53:33.990Z,990.79
2019-06-10T04:54:33.999Z,990.78
2019-06-10T04:55:33.967Z,990.79
2019-06-10T04:56:33.978Z,990.80
2019-06-10T04:57:33.951Z,990.74
2019-06-10T04:58:33.934Z,990.75
2019-06-10T04:59:33.955Z,990.76
2019-06-10T05:00:33.906Z,990.80
2019-06-10T05:01:33.903Z,990.80
2019-06-10T05:02:33.886Z,990.82
2019-06-10T05:03:33.877Z,990.82
2019-06-10T05:04:33.879Z,990.90
2019-06-10T05:05:33.842Z,990.84
2019-06-10T05:06:33.844Z,990.83
2019-06-10T05:07:36.914Z,990.87
2019-06-10T05:08:34.106Z,990.90
2019-06-10T05:09:33.844Z,990.92
2019-06-10T05:10:33.825Z,990.95
2019-06-10T05:11:33.782Z,990.91
2019-06-10T05:12:33.785Z,990.91
2019-06-10T05:13:33.922Z,990.85
2019-06-10T05:14:33.784Z,990.81
2019-06-10T05:15:34.942Z,990.76
2019-06-10T05:16:35.968Z,990.76
2019-06-10T05:17:34.421Z,990.73
2019-06-10T05:18:33.718Z,990.72
2019-06-10T05:19:33.938Z,990.71
2019-06-10T05:20:51.096Z,990.72
2019-06-10T05:21:34.671Z,990.75
2019-06-10T05:22:33.674Z,990.73
2019-06-10T05:23:33.651Z,990.73
2019-06-10T05:24:34.465Z,990.75
2019-06-10T05:25:33.643Z,990.83
2019-06-10T05:26:33.850Z,990.73
2019-06-10T05:27:33.622Z,990.73
2019-06-10T05:28:34.347Z,990.76
2019-06-10T05:29:34.236Z,990.71
2019-06-10T05:30:34.090Z,990.67
2019-06-10T05:31:34.967Z,990.70
2019-06-10T05:32:33.613Z,990.67
2019-06-10T05:33:33.729Z,990.67
2019-06-10T05:34:34.765Z,990.67
2019-06-10T05:35:34.059Z,990.69
2019-06-10T05:36:34.694Z,990.78
2019-06-10T05:37:34.038Z,990.74
2019-06-10T05:38:35.321Z,990.75
2019-06-10T05:39:35.137Z,990.79
2019-06-10T05:40:34.296Z,990.82
2019-06-10T05:41:35.087Z,990.73
2019-06-10T05:42:35.852Z,990.70
2019-06-10T05:43:34.647Z,990.74
2019-06-10T05:44:34.626Z,990.67
2019-06-10T05:45:35.062Z,990.67
2019-06-10T05:46:34.949Z,990.64
2019-06-10T05:47:35.909Z,990.61
2019-06-10T05:48:35.095Z,990.64
2019-06-10T05:49:35.990Z,990.61
2019-06-10T05:50:34.886Z,990.58
2019-06-10T05:51:35.214Z,990.62
2019-06-10T05:52:35.033Z,990.49
2019-06-10T05:53:35.345Z,990.57
2019-06-10T05:54:35.291Z,990.61
2019-06-10T05:55:35.093Z,990.60
2019-06-10T05:56:35.174Z,990.65
2019-06-10T05:57:35.371Z,990.58
2019-06-10T05:58:35.852Z,990.68
2019-06-10T05:59:34.526Z,990.63
2019-06-10T06:00:35.307Z,990.62
2019-06-10T06:01:38.026Z,990.67
2019-06-10T06:02:35.530Z,990.69
2019-06-10T06:03:36.334Z,990.75
2019-06-10T06:04:34.694Z,990.66
2019-06-10T06:05:34.860Z,990.68
2019-06-10T06:06:35.197Z,990.65
2019-06-10T06:07:35.246Z,990.58
2019-06-10T06:08:35.349Z,990.59
2019-06-10T06:09:35.147Z,990.61
2019-06-10T06:10:35.541Z,990.62
2019-06-10T06:11:35.201Z,990.62
2019-06-10T06:12:34.534Z,990.59
2019-06-10T06:13:35.927Z,990.61
2019-06-10T06:14:35.624Z,990.60
2019-06-10T06:15:35.816Z,990.62
2019-06-10T06:16:35.996Z,990.63
2019-06-10T06:17:35.100Z,990.64
2019-06-10T06:18:35.011Z,990.59
2019-06-10T06:19:35.504Z,990.63
2019-06-10T06:20:35.762Z,990.71
2019-06-10T06:21:41.621Z,990.66
2019-06-10T06:22:35.538Z,990.64
2019-06-10T06:23:33.906Z,990.69
2019-06-10T06:24:35.528Z,990.65
2019-06-10T06:25:38.896Z,990.60
2019-06-10T06:26:37.655Z,990.63
2019-06-10T06:27:34.766Z,990.66
2019-06-10T06:28:35.741Z,990.66
2019-06-10T06:29:33.901Z,990.67
2019-06-10T06:30:34.863Z,990.64
2019-06-10T06:31:34.634Z,990.69
2019-06-10T06:32:33.728Z,990.58
2019-06-10T06:33:36.277Z,990.58
2019-06-10T06:34:35.852Z,990.56
2019-06-10T06:35:35.111Z,990.59
2019-06-10T06:36:36.601Z,990.54
2019-06-10T06:37:37.437Z,990.56
2019-06-10T06:38:35.358Z,990.53
2019-06-10T06:39:34.758Z,990.53
2019-06-10T06:40:35.609Z,990.56
2019-06-10T06:41:34.562Z,990.51
2019-06-10T06:42:35.068Z,990.57
2019-06-10T06:43:40.017Z,990.58
2019-06-10T06:44:37.365Z,990.64
2019-06-10T06:45:34.637Z,990.62
2019-06-10T06:46:36.583Z,990.63
2019-06-10T06:47:35.620Z,990.66
2019-06-10T06:48:35.696Z,990.59
2019-06-10T06:49:34.315Z,990.62
2019-06-10T06:50:34.653Z,990.57
2019-06-10T06:51:46.570Z,990.51
2019-06-10T06:53:04.203Z,990.56
2019-06-10T06:53:44.385Z,990.56
2019-06-10T06:54:36.098Z,990.58
2019-06-10T06:55:33.758Z,990.62
2019-06-10T06:56:36.117Z,990.56
2019-06-10T06:57:35.164Z,990.64
2019-06-10T06:58:35.204Z,990.61
2019-06-10T06:59:34.265Z,990.57
2019-06-10T07:00:48.964Z,990.49
2019-06-10T07:01:36.477Z,990.52
2019-06-10T07:02:34.577Z,990.59
2019-06-10T07:03:35.368Z,990.56
2019-06-10T07:04:34.283Z,990.66
2019-06-10T07:05:34.286Z,990.61
2019-06-10T07:06:34.168Z,990.68
2019-06-10T07:07:33.162Z,990.74
2019-06-10T07:08:33.318Z,990.74
2019-06-10T07:09:33.134Z,990.72
2019-06-10T07:10:33.215Z,990.65
2019-06-10T07:11:33.935Z,990.71
2019-06-10T07:12:33.742Z,990.70
2019-06-10T07:13:35.507Z,990.62
2019-06-10T07:14:36.744Z,990.58
2019-06-10T07:15:35.443Z,990.59
2019-06-10T07:16:34.520Z,990.57
2019-06-10T07:17:34.557Z,990.60
2019-06-10T07:18:35.300Z,990.59
2019-06-10T07:19:35.033Z,990.58
2019-06-10T07:20:33.771Z,990.55
2019-06-10T07:21:34.520Z,990.57
2019-06-10T07:22:36.186Z,990.50
2019-06-10T07:23:35.423Z,990.47
2019-06-10T07:24:36.019Z,990.55
2019-06-10T07:25:36.662Z,990.61
2019-06-10T07:26:35.723Z,990.59
2019-06-10T07:27:35.833Z,990.61
2019-06-10T07:28:34.258Z,990.56
2019-06-10T07:29:34.112Z,990.56
2019-06-10T07:30:36.939Z,990.58
2019-06-10T07:31:35.229Z,990.53
2019-06-10T07:32:34.143Z,990.55
2019-06-10T07:33:34.592Z,990.58
2019-06-10T07:34:33.943Z,990.54
2019-06-10T07:35:33.021Z,990.61
2019-06-10T07:36:32.948Z,990.59
2019-06-10T07:37:32.830Z,990.63
2019-06-10T07:38:33.921Z,990.66
2019-06-10T07:39:34.980Z,990.64
2019-06-10T07:40:33.420Z,990.62
2019-06-10T07:41:32.858Z,990.62
2019-06-10T07:42:33.265Z,990.59
2019-06-10T07:43:32.838Z,990.64
2019-06-10T07:44:33.372Z,990.66
2019-06-10T07:45:33.806Z,990.67
2019-06-10T07:46:33.488Z,990.62
2019-06-10T07:47:32.697Z,990.60
2019-06-10T07:48:33.513Z,990.56
2019-06-10T07:49:33.786Z,990.61
2019-06-10T07:50:33.351Z,990.61
2019-06-10T07:51:32.922Z,990.53
2019-06-10T07:52:33.157Z,990.51
2019-06-10T07:53:33.816Z,990.45
2019-06-10T07:54:33.303Z,990.43
2019-06-10T07:55:33.235Z,990.51
2019-06-10T07:56:37.221Z,990.46
2019-06-10T07:57:34.387Z,990.52
2019-06-10T07:58:33.280Z,990.71
2019-06-10T07:59:32.610Z,990.48
2019-06-10T08:00:33.725Z,990.41
2019-06-10T08:01:33.314Z,990.53
2019-06-10T08:02:32.681Z,990.41
2019-06-10T08:03:34.390Z,990.35
2019-06-10T08:04:33.595Z,990.55
2019-06-10T08:05:32.724Z,990.42
2019-06-10T08:06:33.521Z,990.48
2019-06-10T08:07:33.492Z,990.45
2019-06-10T08:08:32.885Z,990.50
2019-06-10T08:09:39.188Z,990.47
2019-06-10T08:10:32.977Z,990.49
2019-06-10T08:11:33.256Z,990.62
2019-06-10T08:12:32.542Z,990.59
2019-06-10T08:13:32.466Z,990.54
2019-06-10T08:14:32.967Z,990.55
2019-06-10T08:15:32.547Z,990.54
2019-06-10T08:16:32.773Z,990.52
2019-06-10T08:17:32.834Z,990.59
2019-06-10T08:18:38.146Z,990.45
2019-06-10T08:19:37.743Z,990.40
2019-06-10T08:20:32.809Z,990.51
2019-06-10T08:21:32.333Z,990.44
2019-06-10T08:22:37.292Z,990.49
2019-06-10T08:23:33.040Z,990.42
2019-06-10T08:24:32.918Z,990.51
2019-06-10T08:25:32.806Z,990.35
2019-06-10T08:26:32.457Z,990.48
2019-06-10T08:27:33.544Z,990.54
2019-06-10T08:28:33.175Z,990.54
2019-06-10T08:29:33.003Z,990.48
2019-06-10T08:30:32.900Z,990.34
2019-06-10T08:31:33.255Z,990.35
2019-06-10T08:32:33.494Z,990.33
2019-06-10T08:33:33.185Z,990.28
2019-06-10T08:34:32.941Z,990.23
2019-06-10T08:35:39.335Z,990.27
2019-06-10T08:36:33.323Z,990.23
2019-06-10T08:37:33.197Z,990.27
2019-06-10T08:38:32.981Z,990.13
2019-06-10T08:39:33.521Z,990.19
2019-06-10T08:40:32.559Z,990.07
2019-06-10T08:41:32.243Z,990.08
2019-06-10T08:42:32.372Z,990.11
2019-06-10T08:43:33.095Z,990.15
2019-06-10T08:44:32.733Z,990.18
2019-06-10T08:45:33.338Z,990.11
2019-06-10T08:46:32.985Z,990.11
2019-06-10T08:47:32.630Z,989.98
2019-06-10T08:48:32.907Z,990.01
2019-06-10T08:49:32.777Z,990.06
2019-06-10T08:50:33.759Z,989.95
2019-06-10T08:51:32.451Z,989.93
2019-06-10T08:52:48.935Z,989.95
2019-06-10T08:53:32.947Z,989.87
2019-06-10T08:54:32.449Z,989.92
2019-06-10T08:55:33.457Z,989.88
2019-06-10T08:56:32.793Z,989.97
2019-06-10T08:57:33.518Z,989.96
2019-06-10T08:58:33.136Z,989.90
2019-06-10T08:59:32.583Z,989.90
2019-06-10T09:00:33.222Z,989.97
2019-06-10T09:01:33.394Z,989.97
2019-06-10T09:02:33.436Z,989.98
2019-06-10T09:03:32.427Z,990.01
2019-06-10T09:04:33.070Z,989.99
2019-06-10T09:05:32.404Z,989.93
2019-06-10T09:06:33.006Z,989.88
2019-06-10T09:07:32.342Z,989.87
2019-06-10T09:08:32.603Z,989.91
2019-06-10T09:09:33.528Z,989.81
2019-06-10T09:10:33.733Z,989.81
2019-06-10T09:11:32.861Z,989.87
2019-06-10T09:12:36.430Z,989.90
2019-06-10T09:13:33.670Z,989.74
2019-06-10T09:14:32.627Z,989.84
2019-06-10T09:15:32.459Z,989.69
2019-06-10T09:16:32.359Z,989.72
2019-06-10T09:17:33.735Z,989.83
2019-06-10T09:18:33.662Z,989.90
2019-06-10T09:19:33.247Z,989.85
2019-06-10T09:20:33.201Z,989.81
2019-06-10T09:21:33.011Z,989.79
2019-06-10T09:22:32.714Z,989.77
2019-06-10T09:23:33.217Z,989.75
2019-06-10T09:24:32.801Z,989.75
2019-06-10T09:25:33.390Z,989.74
2019-06-10T09:26:33.507Z,989.75
2019-06-10T09:27:32.788Z,989.67
2019-06-10T09:28:32.827Z,989.62
2019-06-10T09:29:32.850Z,989.65
2019-06-10T09:30:33.416Z,989.63
2019-06-10T09:31:33.161Z,989.61
2019-06-10T09:32:32.536Z,989.67
2019-06-10T09:33:33.095Z,989.65
2019-06-10T09:34:33.034Z,989.64
2019-06-10T09:35:32.273Z,989.65
2019-06-10T09:36:32.531Z,989.65
2019-06-10T09:37:32.047Z,989.63
2019-06-10T09:38:33.406Z,989.66
2019-06-10T09:39:32.867Z,989.68
2019-06-10T09:40:33.803Z,989.73
2019-06-10T09:41:40.079Z,989.76
2019-06-10T09:42:33.309Z,989.57
2019-06-10T09:43:33.237Z,989.61
2019-06-10T09:44:33.247Z,989.60
2019-06-10T09:45:33.285Z,989.59
2019-06-10T09:46:33.111Z,989.58
2019-06-10T09:47:33.988Z,989.49
2019-06-10T09:48:33.312Z,989.53
2019-06-10T09:49:32.790Z,989.53
2019-06-10T09:50:33.303Z,989.51
2019-06-10T09:51:32.458Z,989.57
2019-06-10T09:52:32.856Z,989.52
2019-06-10T09:53:39.290Z,989.45
2019-06-10T09:54:33.547Z,989.49
2019-06-10T09:55:32.855Z,989.56
2019-06-10T09:56:33.005Z,989.58
2019-06-10T09:57:32.192Z,989.67
2019-06-10T09:58:32.912Z,989.61
2019-06-10T09:59:32.223Z,989.46
2019-06-10T10:00:33.084Z,989.46
2019-06-10T10:01:32.670Z,989.57
2019-06-10T10:02:33.084Z,989.61
2019-06-10T10:03:32.956Z,989.41
2019-06-10T10:04:32.740Z,989.48
2019-06-10T10:05:33.674Z,989.48
2019-06-10T10:06:32.709Z,989.40
2019-06-10T10:07:32.422Z,989.38
2019-06-10T10:08:32.748Z,989.37
2019-06-10T10:09:33.786Z,989.32
2019-06-10T10:10:32.737Z,989.28
2019-06-10T10:11:32.071Z,989.27
2019-06-10T10:12:32.665Z,989.34
2019-06-10T10:13:34.971Z,989.33
2019-06-10T10:14:30.676Z,989.26
2019-06-10T10:15:34.277Z,989.37
2019-06-10T10:16:33.696Z,989.29
2019-06-10T10:17:33.230Z,989.26
2019-06-10T10:18:32.924Z,989.30
2019-06-10T10:19:30.630Z,989.24
2019-06-10T10:20:30.635Z,989.27
2019-06-10T10:21:30.650Z,989.28
2019-06-10T10:22:30.581Z,989.38
2019-06-10T10:23:48.385Z,989.31
2019-06-10T10:24:34.025Z,989.32
2019-06-10T10:25:32.621Z,989.35
2019-06-10T10:26:30.597Z,989.45
2019-06-10T10:27:32.390Z,989.26
2019-06-10T10:28:33.192Z,989.29
2019-06-10T10:29:32.716Z,989.28
2019-06-10T10:30:33.048Z,989.15
2019-06-10T10:31:32.452Z,989.13
2019-06-10T10:32:33.253Z,989.12
2019-06-10T10:33:33.158Z,989.16
2019-06-10T10:34:33.162Z,989.12
2019-06-10T10:35:32.519Z,989.17
2019-06-10T10:36:33.373Z,989.07
2019-06-10T10:37:32.285Z,989.02
2019-06-10T10:38:30.421Z,988.93
2019-06-10T10:39:32.552Z,988.99
2019-06-10T10:40:32.598Z,988.99
2019-06-10T10:41:32.292Z,989.01
2019-06-10T10:42:42.739Z,989.01
2019-06-10T10:43:34.208Z,989.05
2019-06-10T10:44:31.998Z,989.03
2019-06-10T10:45:30.344Z,988.99
2019-06-10T10:46:32.486Z,988.98
2019-06-10T10:47:33.340Z,988.95
2019-06-10T10:48:30.309Z,989.03
2019-06-10T10:49:30.339Z,989.01
2019-06-10T10:50:30.299Z,989.01
2019-06-10T10:51:32.497Z,988.89
2019-06-10T10:52:32.860Z,988.89
2019-06-10T10:53:32.563Z,988.91
2019-06-10T10:54:35.987Z,988.89
2019-06-10T10:55:33.367Z,988.85
2019-06-10T10:56:30.251Z,988.89
2019-06-10T10:57:30.273Z,988.81
2019-06-10T10:58:32.240Z,988.83
2019-06-10T10:59:33.063Z,988.86
2019-06-10T11:00:34.240Z,988.86
2019-06-10T11:01:33.126Z,988.86
2019-06-10T11:02:32.173Z,988.89
2019-06-10T11:03:30.217Z,988.78
2019-06-10T11:04:32.665Z,988.79
2019-06-10T11:05:33.105Z,988.74
2019-06-10T11:06:32.153Z,988.76
2019-06-10T11:07:33.325Z,988.70
2019-06-10T11:08:32.405Z,988.74
2019-06-10T11:09:32.862Z,988.76
2019-06-10T11:10:32.855Z,988.71
2019-06-10T11:11:30.099Z,988.67
2019-06-10T11:12:30.132Z,988.70
2019-06-10T11:13:32.689Z,988.70
2019-06-10T11:14:30.074Z,988.69
2019-06-10T11:15:32.795Z,988.67
2019-06-10T11:16:32.862Z,988.68
2019-06-10T11:17:30.047Z,988.74
2019-06-10T11:18:30.012Z,988.75
2019-06-10T11:19:32.136Z,988.66
2019-06-10T11:20:30.032Z,988.70
2019-06-10T11:21:29.987Z,988.69
2019-06-10T11:22:30.004Z,988.69
2019-06-10T11:23:33.387Z,988.64
2019-06-10T11:24:37.631Z,988.73
2019-06-10T11:25:33.092Z,988.70
2019-06-10T11:26:32.720Z,988.73
2019-06-10T11:27:30.941Z,988.74
2019-06-10T11:28:31.937Z,988.75
2019-06-10T11:29:29.941Z,988.73
2019-06-10T11:30:32.253Z,988.68
2019-06-10T11:31:29.880Z,988.70
2019-06-10T11:32:29.907Z,988.67
2019-06-10T11:33:32.648Z,988.68
2019-06-10T11:34:29.867Z,988.69
2019-06-10T11:35:29.846Z,988.67
2019-06-10T11:36:29.843Z,988.69
2019-06-10T11:37:29.854Z,988.67
2019-06-10T11:38:32.592Z,988.71
2019-06-10T11:39:29.801Z,988.66
2019-06-10T11:40:29.793Z,988.65
2019-06-10T11:41:32.282Z,988.55
2019-06-10T11:42:29.923Z,988.56
2019-06-10T11:43:29.790Z,988.54
2019-06-10T11:44:29.772Z,988.58
2019-06-10T11:45:29.755Z,988.59
2019-06-10T11:46:29.736Z,988.57
2019-06-10T11:47:30.309Z,988.55
2019-06-10T11:48:29.734Z,988.58
2019-06-10T11:49:29.697Z,988.53
2019-06-10T11:50:29.693Z,988.45
2019-06-10T11:51:29.673Z,988.46
2019-06-10T11:52:29.702Z,988.67
2019-06-10T11:53:29.696Z,988.58
2019-06-10T11:54:29.691Z,988.54
2019-06-10T11:55:29.685Z,988.53
2019-06-10T11:56:29.642Z,988.53
2019-06-10T11:57:29.619Z,988.49
2019-06-10T11:58:29.679Z,988.53
2019-06-10T11:59:29.619Z,988.60
2019-06-10T12:00:32.418Z,988.53
2019-06-10T12:01:29.568Z,988.46
2019-06-10T12:02:29.567Z,988.49
2019-06-10T12:03:29.599Z,988.37
2019-06-10T12:04:29.557Z,988.38
2019-06-10T12:05:32.447Z,988.37
2019-06-10T12:06:29.549Z,988.33
2019-06-10T12:07:29.536Z,988.38
2019-06-10T12:08:29.565Z,988.28
2019-06-10T12:09:29.491Z,988.27
2019-06-10T12:10:29.478Z,988.31
2019-06-10T12:11:29.476Z,988.33
2019-06-10T12:12:29.458Z,988.34
2019-06-10T12:13:29.490Z,988.37
2019-06-10T12:14:29.449Z,988.36
2019-06-10T12:15:29.465Z,988.35
2019-06-10T12:17:42.910Z,988.38
2019-06-10T12:18:33.081Z,988.27
2019-06-10T12:19:29.416Z,988.31
2019-06-10T12:20:29.376Z,988.20
2019-06-10T12:21:29.372Z,988.22
2019-06-10T12:22:29.373Z,988.23
2019-06-10T12:23:29.431Z,988.23
2019-06-10T12:24:29.350Z,988.24
2019-06-10T12:25:36.828Z,988.19
2019-06-10T12:26:30.327Z,988.17
2019-06-10T12:27:29.310Z,988.20
2019-06-10T12:28:29.341Z,988.09
2019-06-10T12:29:29.293Z,988.12